sensor_id;sensor_type;location;lat;lon;timestamp;pressure;altitude;pressure_sealevel;temperature;humidity
32873;BME280;19224;52.462;16.898;2023-07-20T00:00:11;99649.53;;;21.13;100.00
32873;BME280;19224;52.462;16.898;2023-07-20T00:02:44;99645.68;;;21.20;100.00
32873;BME280;19224;52.462;16.898;2023-07-20T00:05:14;99641.98;;;21.11;100.00
32873;BME280;19224;52.462;16.898;2023-07-20T00:07:46;99645.61;;;21.02;100.00
32873;BME280;19224;52.462;16.898;2023-07-20T00:10:19;99650.47;;;20.95;100.00
32873;BME280;19224;52.462;16.898;2023-07-20T00:12:52;99653.23;;;20.76;100.00
32873;BME280;19224;52.462;16.898;2023-07-20T00:15:24;99656.09;;;20.84;100.00
32873;BME280;19224;52.462;16.898;2023-07-20T00:17:54;99655.74;;;20.83;100.00
32873;BME280;19224;52.462;16.898;2023-07-20T00:20:28;99656.18;;;20.88;100.00
32873;BME280;19224;52.462;16.898;2023-07-20T00:23:04;99655.03;;;20.81;100.00
32873;BME280;19224;52.462;16.898;2023-07-20T00:25:32;99644.66;;;20.84;100.00
32873;BME280;19224;52.462;16.898;2023-07-20T00:28:07;99645.88;;;20.95;100.00
32873;BME280;19224;52.462;16.898;2023-07-20T00:30:40;99651.27;;;21.01;100.00
32873;BME280;19224;52.462;16.898;2023-07-20T00:33:12;99656.97;;;20.94;100.00
32873;BME280;19224;52.462;16.898;2023-07-20T00:35:42;99654.02;;;20.91;100.00
32873;BME280;19224;52.462;16.898;2023-07-20T00:38:14;99659.44;;;20.87;100.00
32873;BME280;19224;52.462;16.898;2023-07-20T00:40:49;99666.06;;;20.85;100.00
32873;BME280;19224;52.462;16.898;2023-07-20T00:43:19;99676.14;;;20.75;100.00
32873;BME280;19224;52.462;16.898;2023-07-20T00:45:54;99669.47;;;20.73;100.00
32873;BME280;19224;52.462;16.898;2023-07-20T00:48:27;99668.64;;;20.77;100.00
32873;BME280;19224;52.462;16.898;2023-07-20T00:50:59;99671.68;;;20.83;100.00
32873;BME280;19224;52.462;16.898;2023-07-20T00:53:30;99670.17;;;20.85;100.00
32873;BME280;19224;52.462;16.898;2023-07-20T00:56:02;99668.42;;;20.84;100.00
32873;BME280;19224;52.462;16.898;2023-07-20T00:58:34;99673.23;;;20.53;100.00
32873;BME280;19224;52.462;16.898;2023-07-20T01:01:06;99669.49;;;20.54;100.00
32873;BME280;19224;52.462;16.898;2023-07-20T01:03:42;99669.36;;;20.56;100.00
32873;BME280;19224;52.462;16.898;2023-07-20T01:09:28;99669.78;;;20.42;100.00
32873;BME280;19224;52.462;16.898;2023-07-20T01:12:27;99665.61;;;20.57;100.00
32873;BME280;19224;52.462;16.898;2023-07-20T01:14:53;99676.83;;;20.54;100.00
32873;BME280;19224;52.462;16.898;2023-07-20T01:17:43;99679.52;;;20.40;100.00
32873;BME280;19224;52.462;16.898;2023-07-20T01:20:18;99676.16;;;20.33;100.00
32873;BME280;19224;52.462;16.898;2023-07-20T01:30:00;99672.11;;;20.37;100.00
32873;BME280;19224;52.462;16.898;2023-07-20T01:32:30;99672.48;;;20.28;100.00
32873;BME280;19224;52.462;16.898;2023-07-20T01:35:04;99674.84;;;20.37;100.00
32873;BME280;19224;52.462;16.898;2023-07-20T01:37:44;99667.29;;;20.35;100.00
32873;BME280;19224;52.462;16.898;2023-07-20T01:40:20;99668.77;;;20.43;100.00
32873;BME280;19224;52.462;16.898;2023-07-20T01:42:54;99663.25;;;20.39;100.00
32873;BME280;19224;52.462;16.898;2023-07-20T01:45:26;99640.95;;;20.34;100.00
32873;BME280;19224;52.462;16.898;2023-07-20T01:48:02;99659.14;;;20.39;100.00
32873;BME280;19224;52.462;16.898;2023-07-20T01:50:33;99645.46;;;20.39;100.00
32873;BME280;19224;52.462;16.898;2023-07-20T01:53:06;99639.63;;;20.00;100.00
32873;BME280;19224;52.462;16.898;2023-07-20T01:55:40;99641.34;;;19.82;100.00
32873;BME280;19224;52.462;16.898;2023-07-20T01:58:10;99648.82;;;19.80;100.00
32873;BME280;19224;52.462;16.898;2023-07-20T02:00:41;99655.33;;;19.64;100.00
32873;BME280;19224;52.462;16.898;2023-07-20T02:03:11;99660.66;;;19.65;100.00
32873;BME280;19224;52.462;16.898;2023-07-20T02:05:47;99661.55;;;19.51;100.00
32873;BME280;19224;52.462;16.898;2023-07-20T02:08:18;99666.23;;;19.45;100.00
32873;BME280;19224;52.462;16.898;2023-07-20T02:10:53;99663.31;;;19.37;100.00
32873;BME280;19224;52.462;16.898;2023-07-20T02:13:23;99665.44;;;19.24;100.00
32873;BME280;19224;52.462;16.898;2023-07-20T02:15:58;99669.42;;;19.20;100.00
32873;BME280;19224;52.462;16.898;2023-07-20T02:18:28;99672.41;;;19.17;100.00
32873;BME280;19224;52.462;16.898;2023-07-20T02:21:01;99670.30;;;19.21;100.00
32873;BME280;19224;52.462;16.898;2023-07-20T02:23:31;99669.42;;;19.20;100.00
32873;BME280;19224;52.462;16.898;2023-07-20T02:26:03;99668.70;;;19.18;100.00
32873;BME280;19224;52.462;16.898;2023-07-20T02:28:36;99669.77;;;19.06;100.00
32873;BME280;19224;52.462;16.898;2023-07-20T02:31:14;99672.33;;;19.13;100.00
32873;BME280;19224;52.462;16.898;2023-07-20T02:33:46;99673.70;;;19.28;100.00
32873;BME280;19224;52.462;16.898;2023-07-20T02:36:18;99673.52;;;19.20;100.00
32873;BME280;19224;52.462;16.898;2023-07-20T02:38:50;99685.26;;;19.11;100.00
32873;BME280;19224;52.462;16.898;2023-07-20T02:41:22;99682.83;;;19.23;100.00
32873;BME280;19224;52.462;16.898;2023-07-20T02:43:56;99676.84;;;19.24;100.00
32873;BME280;19224;52.462;16.898;2023-07-20T02:46:27;99682.18;;;19.25;100.00
32873;BME280;19224;52.462;16.898;2023-07-20T02:48:59;99683.38;;;19.12;100.00
32873;BME280;19224;52.462;16.898;2023-07-20T02:51:31;99686.07;;;19.02;100.00
32873;BME280;19224;52.462;16.898;2023-07-20T02:54:01;99687.52;;;19.06;100.00
32873;BME280;19224;52.462;16.898;2023-07-20T02:56:32;99674.95;;;19.09;100.00
32873;BME280;19224;52.462;16.898;2023-07-20T02:59:04;99671.30;;;18.99;100.00
32873;BME280;19224;52.462;16.898;2023-07-20T03:01:36;99668.78;;;18.92;100.00
32873;BME280;19224;52.462;16.898;2023-07-20T03:04:11;99670.22;;;18.96;100.00
32873;BME280;19224;52.462;16.898;2023-07-20T03:06:42;99667.85;;;18.97;100.00
32873;BME280;19224;52.462;16.898;2023-07-20T03:09:17;99675.04;;;18.98;100.00
32873;BME280;19224;52.462;16.898;2023-07-20T03:11:49;99677.97;;;18.91;100.00
32873;BME280;19224;52.462;16.898;2023-07-20T03:14:19;99681.95;;;18.87;100.00
32873;BME280;19224;52.462;16.898;2023-07-20T03:16:50;99690.05;;;18.83;100.00
32873;BME280;19224;52.462;16.898;2023-07-20T03:19:20;99694.58;;;18.73;100.00
32873;BME280;19224;52.462;16.898;2023-07-20T03:21:54;99690.17;;;18.82;100.00
32873;BME280;19224;52.462;16.898;2023-07-20T03:24:24;99678.77;;;18.82;100.00
32873;BME280;19224;52.462;16.898;2023-07-20T03:26:55;99680.09;;;18.73;100.00
32873;BME280;19224;52.462;16.898;2023-07-20T03:29:26;99696.86;;;18.68;100.00
32873;BME280;19224;52.462;16.898;2023-07-20T03:31:58;99699.12;;;18.84;100.00
32873;BME280;19224;52.462;16.898;2023-07-20T03:34:33;99692.98;;;18.91;100.00
32873;BME280;19224;52.462;16.898;2023-07-20T03:37:04;99691.22;;;18.75;100.00
32873;BME280;19224;52.462;16.898;2023-07-20T03:39:47;99693.95;;;18.75;100.00
32873;BME280;19224;52.462;16.898;2023-07-20T03:42:19;99695.31;;;18.75;100.00
32873;BME280;19224;52.462;16.898;2023-07-20T03:44:50;99699.52;;;18.79;100.00
32873;BME280;19224;52.462;16.898;2023-07-20T03:47:20;99686.68;;;18.85;100.00
32873;BME280;19224;52.462;16.898;2023-07-20T03:49:51;99686.32;;;18.84;100.00
32873;BME280;19224;52.462;16.898;2023-07-20T03:52:24;99682.59;;;18.85;100.00
32873;BME280;19224;52.462;16.898;2023-07-20T03:54:54;99690.02;;;18.89;100.00
32873;BME280;19224;52.462;16.898;2023-07-20T03:57:32;99692.42;;;18.82;100.00
32873;BME280;19224;52.462;16.898;2023-07-20T04:00:09;99690.77;;;18.70;100.00
32873;BME280;19224;52.462;16.898;2023-07-20T04:02:39;99694.13;;;18.68;100.00
32873;BME280;19224;52.462;16.898;2023-07-20T04:05:10;99698.87;;;18.66;100.00
32873;BME280;19224;52.462;16.898;2023-07-20T04:07:40;99691.22;;;18.75;100.00
32873;BME280;19224;52.462;16.898;2023-07-20T04:10:13;99696.15;;;18.81;100.00
32873;BME280;19224;52.462;16.898;2023-07-20T04:12:46;99687.72;;;18.79;100.00
32873;BME280;19224;52.462;16.898;2023-07-20T04:15:19;99696.15;;;18.81;100.00
32873;BME280;19224;52.462;16.898;2023-07-20T04:17:50;99696.63;;;19.01;100.00
32873;BME280;19224;52.462;16.898;2023-07-20T04:20:24;99697.44;;;18.92;100.00
32873;BME280;19224;52.462;16.898;2023-07-20T04:22:54;99693.86;;;18.86;100.00
32873;BME280;19224;52.462;16.898;2023-07-20T04:25:24;99701.41;;;18.88;100.00
32873;BME280;19224;52.462;16.898;2023-07-20T04:27:55;99698.98;;;18.65;100.00
32873;BME280;19224;52.462;16.898;2023-07-20T04:30:25;99694.90;;;18.65;100.00
32873;BME280;19224;52.462;16.898;2023-07-20T04:32:59;99688.60;;;18.79;100.00
32873;BME280;19224;52.462;16.898;2023-07-20T04:35:54;99691.50;;;18.87;100.00
32873;BME280;19224;52.462;16.898;2023-07-20T04:38:33;99690.66;;;18.87;100.00
32873;BME280;19224;52.462;16.898;2023-07-20T04:41:06;99682.83;;;18.88;100.00
32873;BME280;19224;52.462;16.898;2023-07-20T04:43:37;99681.87;;;18.83;100.00
32873;BME280;19224;52.462;16.898;2023-07-20T04:46:10;99687.68;;;18.99;100.00
32873;BME280;19224;52.462;16.898;2023-07-20T04:48:40;99688.11;;;19.10;100.00
32873;BME280;19224;52.462;16.898;2023-07-20T04:51:13;99690.25;;;19.06;100.00
32873;BME280;19224;52.462;16.898;2023-07-20T04:53:44;99680.17;;;19.27;100.00
32873;BME280;19224;52.462;16.898;2023-07-20T04:56:14;99693.95;;;19.41;100.00
32873;BME280;19224;52.462;16.898;2023-07-20T04:58:45;99692.99;;;19.21;100.00
32873;BME280;19224;52.462;16.898;2023-07-20T05:01:15;99696.89;;;19.19;100.00
32873;BME280;19224;52.462;16.898;2023-07-20T05:03:51;99690.02;;;19.24;100.00
32873;BME280;19224;52.462;16.898;2023-07-20T05:06:19;99686.36;;;19.44;100.00
32873;BME280;19224;52.462;16.898;2023-07-20T05:08:52;99693.55;;;19.45;100.00
32873;BME280;19224;52.462;16.898;2023-07-20T05:11:22;99687.00;;;19.27;100.00
32873;BME280;19224;52.462;16.898;2023-07-20T05:13:53;99698.20;;;19.24;100.00
32873;BME280;19224;52.462;16.898;2023-07-20T05:16:23;99695.19;;;19.27;100.00
32873;BME280;19224;52.462;16.898;2023-07-20T05:18:53;99698.75;;;19.33;100.00
32873;BME280;19224;52.462;16.898;2023-07-20T05:21:25;99705.27;;;19.51;100.00
32873;BME280;19224;52.462;16.898;2023-07-20T05:23:56;99703.90;;;19.51;100.00
32873;BME280;19224;52.462;16.898;2023-07-20T05:26:26;99713.64;;;19.59;100.00
32873;BME280;19224;52.462;16.898;2023-07-20T05:28:58;99711.97;;;19.53;100.00
32873;BME280;19224;52.462;16.898;2023-07-20T05:31:28;99712.17;;;19.31;100.00
32873;BME280;19224;52.462;16.898;2023-07-20T05:34:00;99711.75;;;19.20;100.00
32873;BME280;19224;52.462;16.898;2023-07-20T05:36:37;99710.40;;;19.35;100.00
32873;BME280;19224;52.462;16.898;2023-07-20T05:39:09;99704.22;;;19.33;100.00
32873;BME280;19224;52.462;16.898;2023-07-20T05:41:42;99709.75;;;19.37;100.00
32873;BME280;19224;52.462;16.898;2023-07-20T05:44:13;99711.41;;;19.34;100.00
32873;BME280;19224;52.462;16.898;2023-07-20T05:46:47;99714.11;;;19.49;100.00
32873;BME280;19224;52.462;16.898;2023-07-20T05:49:17;99716.33;;;19.74;100.00
32873;BME280;19224;52.462;16.898;2023-07-20T05:51:50;99715.19;;;19.67;100.00
32873;BME280;19224;52.462;16.898;2023-07-20T05:54:27;99715.36;;;19.84;100.00
32873;BME280;19224;52.462;16.898;2023-07-20T05:56:58;99716.80;;;19.98;100.00
32873;BME280;19224;52.462;16.898;2023-07-20T05:59:29;99715.92;;;19.88;100.00
32873;BME280;19224;52.462;16.898;2023-07-20T06:01:59;99717.17;;;20.14;100.00
32873;BME280;19224;52.462;16.898;2023-07-20T06:04:29;99718.02;;;20.14;100.00
32873;BME280;19224;52.462;16.898;2023-07-20T06:07:00;99706.72;;;20.04;100.00
32873;BME280;19224;52.462;16.898;2023-07-20T06:09:31;99718.39;;;19.91;100.00
32873;BME280;19224;52.462;16.898;2023-07-20T06:12:06;99720.38;;;19.79;100.00
32873;BME280;19224;52.462;16.898;2023-07-20T06:14:36;99721.62;;;19.90;100.00
32873;BME280;19224;52.462;16.898;2023-07-20T06:17:07;99727.61;;;19.90;100.00
32873;BME280;19224;52.462;16.898;2023-07-20T06:19:37;99726.02;;;19.97;100.00
32873;BME280;19224;52.462;16.898;2023-07-20T06:22:08;99736.70;;;20.00;100.00
32873;BME280;19224;52.462;16.898;2023-07-20T06:24:38;99729.69;;;19.92;100.00
32873;BME280;19224;52.462;16.898;2023-07-20T06:27:08;99728.08;;;19.80;99.59
32873;BME280;19224;52.462;16.898;2023-07-20T06:29:40;99730.22;;;20.01;99.46
32873;BME280;19224;52.462;16.898;2023-07-20T06:32:12;99733.22;;;20.22;98.91
32873;BME280;19224;52.462;16.898;2023-07-20T06:34:44;99733.08;;;20.24;98.62
32873;BME280;19224;52.462;16.898;2023-07-20T06:37:14;99738.05;;;20.43;95.49
32873;BME280;19224;52.462;16.898;2023-07-20T06:39:44;99737.83;;;20.60;95.34
32873;BME280;19224;52.462;16.898;2023-07-20T06:42:15;99738.48;;;20.58;94.03
32873;BME280;19224;52.462;16.898;2023-07-20T06:44:46;99735.66;;;20.54;93.59
32873;BME280;19224;52.462;16.898;2023-07-20T06:47:18;99748.41;;;20.78;92.38
32873;BME280;19224;52.462;16.898;2023-07-20T06:49:48;99743.66;;;20.80;91.15
32873;BME280;19224;52.462;16.898;2023-07-20T06:52:19;99732.31;;;21.07;90.22
32873;BME280;19224;52.462;16.898;2023-07-20T06:54:49;99733.87;;;21.10;90.02
32873;BME280;19224;52.462;16.898;2023-07-20T06:57:19;99729.84;;;21.37;88.26
32873;BME280;19224;52.462;16.898;2023-07-20T06:59:51;99741.20;;;21.28;86.03
32873;BME280;19224;52.462;16.898;2023-07-20T07:02:25;99734.13;;;21.26;87.62
32873;BME280;19224;52.462;16.898;2023-07-20T07:04:57;99743.47;;;21.56;86.58
32873;BME280;19224;52.462;16.898;2023-07-20T07:07:33;99750.20;;;21.71;86.11
32873;BME280;19224;52.462;16.898;2023-07-20T07:10:08;99751.06;;;21.85;83.34
32873;BME280;19224;52.462;16.898;2023-07-20T07:12:42;99751.27;;;21.74;80.46
32873;BME280;19224;52.462;16.898;2023-07-20T07:15:15;99748.05;;;21.65;81.55
32873;BME280;19224;52.462;16.898;2023-07-20T07:17:45;99760.10;;;21.45;81.85
32873;BME280;19224;52.462;16.898;2023-07-20T07:20:19;99749.23;;;21.53;81.80
32873;BME280;19224;52.462;16.898;2023-07-20T07:22:51;99747.60;;;21.69;80.42
32873;BME280;19224;52.462;16.898;2023-07-20T07:25:22;99746.69;;;21.78;79.70
32873;BME280;19224;52.462;16.898;2023-07-20T07:27:56;99754.30;;;21.98;79.66
32873;BME280;19224;52.462;16.898;2023-07-20T07:30:27;99749.37;;;22.14;79.20
32873;BME280;19224;52.462;16.898;2023-07-20T07:32:57;99756.69;;;21.97;78.86
32873;BME280;19224;52.462;16.898;2023-07-20T07:35:29;99753.91;;;21.93;78.02
32873;BME280;19224;52.462;16.898;2023-07-20T07:37:59;99755.67;;;21.98;77.48
32873;BME280;19224;52.462;16.898;2023-07-20T07:40:32;99761.75;;;22.18;76.72
32873;BME280;19224;52.462;16.898;2023-07-20T07:43:06;99750.74;;;22.14;77.56
32873;BME280;19224;52.462;16.898;2023-07-20T07:45:41;99753.94;;;22.23;78.05
32873;BME280;19224;52.462;16.898;2023-07-20T07:48:14;99752.59;;;22.27;78.13
32873;BME280;19224;52.462;16.898;2023-07-20T07:51:00;99751.58;;;22.15;78.42
32873;BME280;19224;52.462;16.898;2023-07-20T07:53:25;99754.96;;;22.09;78.85
32873;BME280;19224;52.462;16.898;2023-07-20T07:55:55;99754.86;;;22.14;76.59
32873;BME280;19224;52.462;16.898;2023-07-20T07:58:27;99749.05;;;22.17;76.34
32873;BME280;19224;52.462;16.898;2023-07-20T08:01:09;99752.59;;;22.27;75.35
32873;BME280;19224;52.462;16.898;2023-07-20T08:03:42;99746.27;;;22.13;75.79
32873;BME280;19224;52.462;16.898;2023-07-20T08:06:12;99753.09;;;22.27;73.52
32873;BME280;19224;52.462;16.898;2023-07-20T08:08:44;99747.38;;;22.51;73.62
32873;BME280;19224;52.462;16.898;2023-07-20T08:11:14;99759.93;;;22.71;71.89
32873;BME280;19224;52.462;16.898;2023-07-20T08:13:48;99762.59;;;22.63;70.49
32873;BME280;19224;52.462;16.898;2023-07-20T08:16:18;99761.16;;;22.94;69.33
32873;BME280;19224;52.462;16.898;2023-07-20T08:18:48;99767.92;;;22.82;68.33
32873;BME280;19224;52.462;16.898;2023-07-20T08:21:21;99756.41;;;22.61;70.49
32873;BME280;19224;52.462;16.898;2023-07-20T08:23:51;99755.31;;;22.93;68.90
32873;BME280;19224;52.462;16.898;2023-07-20T08:26:24;99762.20;;;23.15;68.88
32873;BME280;19224;52.462;16.898;2023-07-20T08:28:57;99760.36;;;22.80;70.23
32873;BME280;19224;52.462;16.898;2023-07-20T08:31:29;99755.59;;;22.47;71.49
32873;BME280;19224;52.462;16.898;2023-07-20T08:34:00;99755.61;;;22.51;73.05
32873;BME280;19224;52.462;16.898;2023-07-20T08:36:32;99759.30;;;22.60;73.01
32873;BME280;19224;52.462;16.898;2023-07-20T08:39:02;99765.39;;;22.36;74.84
32873;BME280;19224;52.462;16.898;2023-07-20T08:41:35;99755.34;;;22.27;74.79
32873;BME280;19224;52.462;16.898;2023-07-20T08:44:10;99768.45;;;22.33;75.66
32873;BME280;19224;52.462;16.898;2023-07-20T08:46:44;99770.40;;;22.23;75.56
32873;BME280;19224;52.462;16.898;2023-07-20T08:49:18;99769.03;;;22.10;75.90
32873;BME280;19224;52.462;16.898;2023-07-20T08:51:49;99771.53;;;22.04;77.52
32873;BME280;19224;52.462;16.898;2023-07-20T08:54:21;99779.54;;;21.88;81.75
32873;BME280;19224;52.462;16.898;2023-07-20T08:56:52;99778.53;;;21.52;89.80
32873;BME280;19224;52.462;16.898;2023-07-20T08:59:28;99789.04;;;21.11;93.11
32873;BME280;19224;52.462;16.898;2023-07-20T09:02:01;99789.06;;;20.92;96.87
32873;BME280;19224;52.462;16.898;2023-07-20T09:04:32;99801.33;;;20.82;97.76
32873;BME280;19224;52.462;16.898;2023-07-20T09:07:03;99795.36;;;20.64;100.00
32873;BME280;19224;52.462;16.898;2023-07-20T09:09:39;99798.55;;;20.69;100.00
32873;BME280;19224;52.462;16.898;2023-07-20T09:12:12;99798.47;;;20.55;100.00
32873;BME280;19224;52.462;16.898;2023-07-20T09:14:38;99809.48;;;20.40;100.00
32873;BME280;19224;52.462;16.898;2023-07-20T09:17:15;99821.40;;;19.90;100.00
32873;BME280;19224;52.462;16.898;2023-07-20T09:19:49;99831.20;;;19.63;100.00
32873;BME280;19224;52.462;16.898;2023-07-20T09:22:19;99823.22;;;19.56;100.00
32873;BME280;19224;52.462;16.898;2023-07-20T09:24:52;99824.22;;;19.20;100.00
32873;BME280;19224;52.462;16.898;2023-07-20T09:27:29;99813.73;;;19.45;100.00
32873;BME280;19224;52.462;16.898;2023-07-20T09:29:57;99812.91;;;19.69;100.00
32873;BME280;19224;52.462;16.898;2023-07-20T09:32:31;99816.20;;;19.78;100.00
32873;BME280;19224;52.462;16.898;2023-07-20T09:35:06;99811.88;;;20.00;100.00
32873;BME280;19224;52.462;16.898;2023-07-20T09:37:36;99810.51;;;20.15;100.00
32873;BME280;19224;52.462;16.898;2023-07-20T09:40:08;99819.72;;;20.14;97.84
32873;BME280;19224;52.462;16.898;2023-07-20T09:42:39;99817.06;;;19.88;96.36
32873;BME280;19224;52.462;16.898;2023-07-20T09:45:10;99809.51;;;20.01;96.45
32873;BME280;19224;52.462;16.898;2023-07-20T09:47:40;99821.73;;;20.12;96.85
32873;BME280;19224;52.462;16.898;2023-07-20T09:50:14;99814.02;;;20.11;97.09
32873;BME280;19224;52.462;16.898;2023-07-20T09:52:44;99815.27;;;20.22;99.93
32873;BME280;19224;52.462;16.898;2023-07-20T09:55:15;99807.42;;;20.23;100.00
32873;BME280;19224;52.462;16.898;2023-07-20T09:57:46;99814.98;;;20.25;100.00
32873;BME280;19224;52.462;16.898;2023-07-20T10:00:20;99818.11;;;20.36;100.00
32873;BME280;19224;52.462;16.898;2023-07-20T10:03:01;99818.83;;;20.47;100.00
32873;BME280;19224;52.462;16.898;2023-07-20T10:05:51;99820.13;;;20.53;100.00
32873;BME280;19224;52.462;16.898;2023-07-20T10:08:15;99811.85;;;20.58;100.00
32873;BME280;19224;52.462;16.898;2023-07-20T10:10:48;99810.20;;;20.80;99.92
32873;BME280;19224;52.462;16.898;2023-07-20T10:13:21;99812.33;;;20.92;99.47
32873;BME280;19224;52.462;16.898;2023-07-20T10:16:01;99801.99;;;21.09;100.00
32873;BME280;19224;52.462;16.898;2023-07-20T10:18:59;99806.39;;;21.38;94.69
32873;BME280;19224;52.462;16.898;2023-07-20T10:21:24;99799.23;;;21.51;94.37
32873;BME280;19224;52.462;16.898;2023-07-20T10:23:59;99800.20;;;21.46;91.75
32873;BME280;19224;52.462;16.898;2023-07-20T10:26:31;99805.45;;;21.20;89.19
32873;BME280;19224;52.462;16.898;2023-07-20T10:29:04;99804.27;;;21.32;91.20
32873;BME280;19224;52.462;16.898;2023-07-20T10:31:37;99804.89;;;21.40;87.81
32873;BME280;19224;52.462;16.898;2023-07-20T10:34:08;99812.27;;;21.53;87.85
32873;BME280;19224;52.462;16.898;2023-07-20T10:36:46;99806.65;;;21.54;87.70
32873;BME280;19224;52.462;16.898;2023-07-20T10:39:30;99808.93;;;21.68;88.51
32873;BME280;19224;52.462;16.898;2023-07-20T10:42:10;99813.73;;;21.80;88.21
32873;BME280;19224;52.462;16.898;2023-07-20T10:44:41;99803.87;;;21.87;88.24
32873;BME280;19224;52.462;16.898;2023-07-20T10:47:14;99802.34;;;21.75;85.22
32873;BME280;19224;52.462;16.898;2023-07-20T10:50:05;99797.70;;;22.12;83.09
32873;BME280;19224;52.462;16.898;2023-07-20T10:52:49;99792.91;;;22.00;82.01
32873;BME280;19224;52.462;16.898;2023-07-20T10:55:17;99793.83;;;22.18;82.33
32873;BME280;19224;52.462;16.898;2023-07-20T10:58:11;99789.15;;;22.14;81.95
32873;BME280;19224;52.462;16.898;2023-07-20T11:01:02;99793.05;;;22.25;80.20
32873;BME280;19224;52.462;16.898;2023-07-20T11:03:39;99777.02;;;22.48;80.03
32873;BME280;19224;52.462;16.898;2023-07-20T11:06:30;99777.75;;;22.67;78.54
32873;BME280;19224;52.462;16.898;2023-07-20T11:09:10;99784.62;;;22.89;78.01
32873;BME280;19224;52.462;16.898;2023-07-20T11:11:46;99782.03;;;22.87;76.47
32873;BME280;19224;52.462;16.898;2023-07-20T11:14:25;99774.55;;;22.93;76.99
32873;BME280;19224;52.462;16.898;2023-07-20T11:17:14;99767.49;;;23.12;74.37
32873;BME280;19224;52.462;16.898;2023-07-20T11:19:35;99762.73;;;23.14;75.79
32873;BME280;19224;52.462;16.898;2023-07-20T11:22:06;99760.54;;;23.22;74.38
32873;BME280;19224;52.462;16.898;2023-07-20T11:24:41;99765.00;;;23.01;71.04
32873;BME280;19224;52.462;16.898;2023-07-20T11:27:13;99763.78;;;22.78;71.77
32873;BME280;19224;52.462;16.898;2023-07-20T11:29:46;99766.03;;;23.00;74.24
32873;BME280;19224;52.462;16.898;2023-07-20T11:32:24;99765.27;;;22.94;70.52
32873;BME280;19224;52.462;16.898;2023-07-20T11:34:54;99760.33;;;22.98;70.87
32873;BME280;19224;52.462;16.898;2023-07-20T11:37:31;99766.45;;;23.31;67.53
32873;BME280;19224;52.462;16.898;2023-07-20T11:40:02;99758.08;;;23.15;64.22
32873;BME280;19224;52.462;16.898;2023-07-20T11:42:34;99759.18;;;23.04;63.57
32873;BME280;19224;52.462;16.898;2023-07-20T11:45:05;99751.30;;;23.09;65.06
32873;BME280;19224;52.462;16.898;2023-07-20T11:47:41;99756.27;;;23.23;64.88
32873;BME280;19224;52.462;16.898;2023-07-20T11:50:14;99771.55;;;23.26;61.78
32873;BME280;19224;52.462;16.898;2023-07-20T11:52:45;99768.77;;;23.18;61.67
32873;BME280;19224;52.462;16.898;2023-07-20T11:55:16;99788.73;;;23.06;62.69
32873;BME280;19224;52.462;16.898;2023-07-20T11:58:08;99781.14;;;23.00;60.84
32873;BME280;19224;52.462;16.898;2023-07-20T12:00:40;99784.03;;;23.16;62.07
32873;BME280;19224;52.462;16.898;2023-07-20T12:03:13;99772.43;;;23.26;59.67
32873;BME280;19224;52.462;16.898;2023-07-20T12:05:45;99766.80;;;23.32;60.38
32873;BME280;19224;52.462;16.898;2023-07-20T12:08:16;99763.91;;;23.37;61.98
32873;BME280;19224;52.462;16.898;2023-07-20T12:10:48;99757.66;;;23.53;62.40
32873;BME280;19224;52.462;16.898;2023-07-20T12:13:19;99764.94;;;23.66;61.14
32873;BME280;19224;52.462;16.898;2023-07-20T12:15:53;99756.55;;;23.75;61.17
32873;BME280;19224;52.462;16.898;2023-07-20T12:18:34;99768.72;;;23.98;62.48
32873;BME280;19224;52.462;16.898;2023-07-20T12:21:02;99756.14;;;23.88;61.63
32873;BME280;19224;52.462;16.898;2023-07-20T12:23:41;99762.08;;;24.13;60.11
32873;BME280;19224;52.462;16.898;2023-07-20T12:26:15;99759.20;;;24.26;58.74
32873;BME280;19224;52.462;16.898;2023-07-20T12:28:45;99752.19;;;24.44;57.90
32873;BME280;19224;52.462;16.898;2023-07-20T12:31:19;99745.89;;;24.83;55.56
32873;BME280;19224;52.462;16.898;2023-07-20T12:33:58;99740.54;;;24.66;53.79
32873;BME280;19224;52.462;16.898;2023-07-20T12:36:30;99745.48;;;24.46;54.42
32873;BME280;19224;52.462;16.898;2023-07-20T12:39:00;99741.77;;;24.67;54.14
32873;BME280;19224;52.462;16.898;2023-07-20T12:41:30;99752.59;;;24.65;51.94
32873;BME280;19224;52.462;16.898;2023-07-20T12:44:01;99739.01;;;24.79;51.13
32873;BME280;19224;52.462;16.898;2023-07-20T12:46:31;99750.71;;;24.93;51.86
32873;BME280;19224;52.462;16.898;2023-07-20T12:49:05;99759.34;;;24.90;51.78
32873;BME280;19224;52.462;16.898;2023-07-20T12:51:35;99768.92;;;24.54;52.70
32873;BME280;19224;52.462;16.898;2023-07-20T12:54:10;99788.48;;;23.94;52.59
32873;BME280;19224;52.462;16.898;2023-07-20T12:56:40;99793.55;;;23.51;54.30
32873;BME280;19224;52.462;16.898;2023-07-20T12:59:11;99775.06;;;23.65;55.54
32873;BME280;19224;52.462;16.898;2023-07-20T13:01:42;99781.66;;;23.76;54.88
32873;BME280;19224;52.462;16.898;2023-07-20T13:04:15;99767.14;;;23.84;54.23
32873;BME280;19224;52.462;16.898;2023-07-20T13:06:47;99770.52;;;24.11;54.57
32873;BME280;19224;52.462;16.898;2023-07-20T13:09:17;99774.65;;;24.11;52.92
32873;BME280;19224;52.462;16.898;2023-07-20T13:11:50;99781.34;;;24.09;53.52
32873;BME280;19224;52.462;16.898;2023-07-20T13:14:22;99791.39;;;24.30;53.74
32873;BME280;19224;52.462;16.898;2023-07-20T13:16:53;99782.60;;;24.26;53.80
32873;BME280;19224;52.462;16.898;2023-07-20T13:19:27;99781.22;;;24.30;53.42
32873;BME280;19224;52.462;16.898;2023-07-20T13:21:57;99781.41;;;24.33;53.94
32873;BME280;19224;52.462;16.898;2023-07-20T13:24:27;99786.08;;;24.36;54.11